Fernando Pessoa — CSKQ — position and weather

sailwx.info

Track history (hours):
 
Tides and Currents Weather Stations Pressure Air Temp Water Temp Dewpoint Dewpoint Depression Visibility Wind Speed Wind Dir Waves Ship Positions

Fernando Pessoa

Last reported at 2014-Jul-30 00:33 UTC. Time now 2014-Jul-30 00:59 UTC.
Position N 38°39' W 009°05'.

Length 49 m.

MMSI: 263701470.

Date/timePositionNaut miles runAvg speedWind from/ knotsBaromVisibWave heightAir tempDewpointWater temp
2014-Jul-30 00:33N 38°39' W 009°05'0 0.0
2014-Jul-29 23:33N 38°39' W 009°05'4 3.9
2014-Jul-29 22:34N 38°42' W 009°08'1 1.0
2014-Jul-29 21:33N 38°41' W 009°08'0 0.2
2014-Jul-29 20:33N 38°41' W 009°08'3 2.9
2014-Jul-29 19:34N 38°39' W 009°05'0 0.3
2014-Jul-29 18:33N 38°39' W 009°05'0 0.3
2014-Jul-29 17:34N 38°39' W 009°05'1 1.5
2014-Jul-29 16:34N 38°40' W 009°06'1 1.4
2014-Jul-29 15:33N 38°39' W 009°05'0 0.0
2014-Jul-29 10:29N 38°39' W 009°05'1 1.5
2014-Jul-29 09:34N 38°40' W 009°06'0 0.2
2014-Jul-29 08:34N 38°40' W 009°06'3 2.7
2014-Jul-29 07:34N 38°42' W 009°08'0 0.4
2014-Jul-29 06:34N 38°42' W 009°08'4 4.1
2014-Jul-29 05:33N 38°39' W 009°05'0 0.0
2014-Jul-28 20:20N 38°39' W 009°05'3 4.3
2014-Jul-28 19:34N 38°42' W 009°08'3 2.7
2014-Jul-28 18:34N 38°39' W 009°06'3 3.2
2014-Jul-28 17:34N 38°42' W 009°08'0 0.2
2014-Jul-28 16:34N 38°42' W 009°08'1 0.9
2014-Jul-28 15:34N 38°41' W 009°08'3 3.3
2014-Jul-28 14:33N 38°39' W 009°05'2 1.8
2014-Jul-28 13:33N 38°40' W 009°07'0 0.3
2014-Jul-28 12:34N 38°40' W 009°06'0 0.0
2014-Jul-28 11:34N 38°40' W 009°06'0 0.4
2014-Jul-28 10:34N 38°39' W 009°06'1 0.9
2014-Jul-28 09:33N 38°39' W 009°05'0 0.0
2014-Jul-28 08:33N 38°39' W 009°05'0 0.0
2014-Jul-28 07:34N 38°39' W 009°05'1 1.1
2014-Jul-28 06:34N 38°40' W 009°06'1 1.0
2014-Jul-28 05:33N 38°39' W 009°05'  
2014-Jul-25 20:33N 38°39' W 009°05'0 0.0
2014-Jul-25 19:33N 38°39' W 009°05'3 3.4
2014-Jul-25 18:33N 38°41' W 009°08'1 1.5
2014-Jul-25 17:33N 38°40' W 009°07'2 2.1
2014-Jul-25 16:33N 38°39' W 009°05'0 0.1
2014-Jul-25 15:33N 38°39' W 009°05'0 0.1
2014-Jul-25 14:33N 38°39' W 009°05'0 0.0
2014-Jul-25 09:08N 38°39' W 009°05'0 0.1
2014-Jul-25 08:34N 38°39' W 009°05'0 0.0
2014-Jul-24 08:34N 38°39' W 009°05'0 0.1
2014-Jul-24 07:34N 38°39' W 009°05'0 0.3
2014-Jul-24 06:33N 38°39' W 009°05'0 0.1
2014-Jul-24 05:21N 38°39' W 009°05'0 0.0
2014-Jul-24 04:33N 38°39' W 009°05'0 0.0
2014-Jul-24 03:30N 38°39' W 009°05'0 0.0
2014-Jul-24 02:33N 38°39' W 009°05'0 0.0
2014-Jul-24 01:29N 38°39' W 009°05'0 0.0
2014-Jul-24 00:29N 38°39' W 009°05'0 0.0
2014-Jul-23 23:10N 38°39' W 009°05'0 0.0
2014-Jul-23 22:31N 38°39' W 009°05'0 0.0
2014-Jul-23 21:29N 38°39' W 009°05'0 0.0
2014-Jul-23 20:31N 38°39' W 009°05'0 0.1
2014-Jul-23 19:33N 38°39' W 009°05'4 3.6
2014-Jul-23 18:33N 38°42' W 009°08'2 1.8
2014-Jul-23 17:33N 38°40' W 009°07'2 2.0
2014-Jul-23 16:33N 38°39' W 009°05'0 0.0
2014-Jul-23 15:33N 38°39' W 009°05'0 0.1
2014-Jul-23 14:33N 38°39' W 009°05'0 0.0
2014-Jul-23 12:12N 38°39' W 009°05'0 0.0
2014-Jul-23 11:33N 38°39' W 009°05'0 0.0
2014-Jul-23 10:33N 38°39' W 009°05'0 0.0
2014-Jul-23 09:33N 38°39' W 009°05'0 0.1
2014-Jul-23 08:13N 38°39' W 009°05'0 0.6
2014-Jul-23 07:33N 38°39' W 009°05'0 0.4
2014-Jul-23 06:33N 38°39' W 009°05'0 0.0
2014-Jul-23 05:33N 38°39' W 009°05'0 0.0
2014-Jul-22 20:33N 38°39' W 009°05'0 0.1
2014-Jul-22 19:33N 38°39' W 009°05'3 3.5
2014-Jul-22 18:33N 38°42' W 009°08'2 1.7
2014-Jul-22 17:33N 38°40' W 009°07'2 2.1
2014-Jul-22 16:32N 38°39' W 009°05'0 0.2
2014-Jul-22 15:33N 38°39' W 009°05'0 0.0
2014-Jul-22 11:27N 38°39' W 009°05'4 4.9
2014-Jul-22 10:34N 38°43' W 009°06'4 4.3
2014-Jul-22 09:33N 38°39' W 009°05'1 0.8
2014-Jul-22 08:33N 38°39' W 009°06'3 3.1
2014-Jul-22 07:34N 38°42' W 009°08'0 0.4
2014-Jul-22 06:33N 38°42' W 009°08'4 0.4
2014-Jul-21 21:10N 38°39' W 009°05'0 0.0
2014-Jul-21 20:33N 38°39' W 009°05'0 0.0
2014-Jul-21 20:18N 38°39' W 009°05'0 0.0
2014-Jul-21 19:33N 38°39' W 009°05'4 3.9
2014-Jul-21 18:33N 38°42' W 009°08'0 0.4
2014-Jul-21 17:33N 38°42' W 009°08'2 2.4
2014-Jul-21 16:33N 38°40' W 009°07'2 1.9
2014-Jul-21 15:33N 38°39' W 009°05'1 0.9
2014-Jul-21 14:33N 38°39' W 009°06'1 0.9
2014-Jul-21 13:32N 38°39' W 009°05'0 0.0
2014-Jul-21 12:33N 38°39' W 009°05'0 0.0
2014-Jul-21 11:33N 38°39' W 009°05'0 0.0
2014-Jul-21 10:33N 38°39' W 009°05'1 1.5
2014-Jul-21 09:33N 38°40' W 009°06'0 0.3
2014-Jul-21 08:33N 38°40' W 009°06'0 0.5
2014-Jul-21 07:33N 38°40' W 009°07'2 1.7
2014-Jul-21 06:33N 38°39' W 009°05'0 0.0
2014-Jul-21 05:33N 38°39' W 009°05'0 0.0
2014-Jul-21 04:33N 38°39' W 009°05'0 0.0
2014-Jul-21 03:33N 38°39' W 009°05'0 0.0
2014-Jul-21 02:33N 38°39' W 009°05'0 0.0
2014-Jul-21 01:33N 38°39' W 009°05'0 0.0
2014-Jul-21 00:33N 38°39' W 009°05'0 0.0
2014-Jul-20 23:33N 38°39' W 009°05'0 0.0
2014-Jul-20 22:33N 38°39' W 009°05'0 0.0
2014-Jul-20 21:33N 38°39' W 009°05'3 2.9
2014-Jul-20 20:34N 38°41' W 009°08'3 2.9
2014-Jul-20 19:33N 38°39' W 009°05'2 2.2
2014-Jul-20 18:33N 38°40' W 009°07'1 0.6
2014-Jul-20 17:33N 38°40' W 009°06'0 0.1
2014-Jul-20 16:33N 38°40' W 009°06'0 0.0
2014-Jul-20 15:33N 38°40' W 009°06'0 0.1
2014-Jul-20 14:34N 38°40' W 009°06'0 0.1
2014-Jul-20 13:33N 38°40' W 009°06'0 0.0
2014-Jul-20 12:33N 38°40' W 009°06'1 1.5
2014-Jul-20 11:33N 38°39' W 009°05'0 0.0
2014-Jul-20 10:33N 38°39' W 009°05'0 0.0
2014-Jul-20 09:33N 38°39' W 009°05'0 0.0
2014-Jul-20 08:33N 38°39' W 009°05'0 0.0
2014-Jul-20 07:33N 38°39' W 009°05'0 0.0
2014-Jul-20 06:34N 38°39' W 009°05'1 1.1
2014-Jul-20 05:33N 38°40' W 009°06'1 1.1
2014-Jul-20 04:33N 38°39' W 009°05'  
Track history (hours):
 
Tides and Currents Weather Stations Pressure Air Temp Water Temp Dewpoint Dewpoint Depression Visibility Wind Speed Wind Dir Waves Ship Positions

Fernando Pessoa

Last reported at 2014-Jul-30 00:33 UTC. Time now 2014-Jul-30 00:59 UTC.
Position N 38°39' W 009°05'.

Length 49 m.

MMSI: 263701470.

Date/timePositionNaut miles runAvg speedWind from/ knotsBaromVisibWave heightAir tempDewpointWater temp
2014-Jul-30 00:33N 38°39' W 009°05'0 0.0
2014-Jul-29 23:33N 38°39' W 009°05'4 3.9
2014-Jul-29 22:34N 38°42' W 009°08'1 1.0
2014-Jul-29 21:33N 38°41' W 009°08'0 0.2
2014-Jul-29 20:33N 38°41' W 009°08'3 2.9
2014-Jul-29 19:34N 38°39' W 009°05'0 0.3
2014-Jul-29 18:33N 38°39' W 009°05'0 0.3
2014-Jul-29 17:34N 38°39' W 009°05'1 1.5
2014-Jul-29 16:34N 38°40' W 009°06'1 1.4
2014-Jul-29 15:33N 38°39' W 009°05'0 0.0
2014-Jul-29 10:29N 38°39' W 009°05'1 1.5
2014-Jul-29 09:34N 38°40' W 009°06'0 0.2
2014-Jul-29 08:34N 38°40' W 009°06'3 2.7
2014-Jul-29 07:34N 38°42' W 009°08'0 0.4
2014-Jul-29 06:34N 38°42' W 009°08'4 4.1
2014-Jul-29 05:33N 38°39' W 009°05'0 0.0
2014-Jul-28 20:20N 38°39' W 009°05'3 4.3
2014-Jul-28 19:34N 38°42' W 009°08'3 2.7
2014-Jul-28 18:34N 38°39' W 009°06'3 3.2
2014-Jul-28 17:34N 38°42' W 009°08'0 0.2
2014-Jul-28 16:34N 38°42' W 009°08'1 0.9
2014-Jul-28 15:34N 38°41' W 009°08'3 3.3
2014-Jul-28 14:33N 38°39' W 009°05'2 1.8
2014-Jul-28 13:33N 38°40' W 009°07'0 0.3
2014-Jul-28 12:34N 38°40' W 009°06'0 0.0
2014-Jul-28 11:34N 38°40' W 009°06'0 0.4
2014-Jul-28 10:34N 38°39' W 009°06'1 0.9
2014-Jul-28 09:33N 38°39' W 009°05'0 0.0
2014-Jul-28 08:33N 38°39' W 009°05'0 0.0
2014-Jul-28 07:34N 38°39' W 009°05'1 1.1
2014-Jul-28 06:34N 38°40' W 009°06'1 1.0
2014-Jul-28 05:33N 38°39' W 009°05'  
2014-Jul-25 20:33N 38°39' W 009°05'0 0.0
2014-Jul-25 19:33N 38°39' W 009°05'3 3.4
2014-Jul-25 18:33N 38°41' W 009°08'1 1.5
2014-Jul-25 17:33N 38°40' W 009°07'2 2.1
2014-Jul-25 16:33N 38°39' W 009°05'0 0.1
2014-Jul-25 15:33N 38°39' W 009°05'0 0.1
2014-Jul-25 14:33N 38°39' W 009°05'0 0.0
2014-Jul-25 09:08N 38°39' W 009°05'0 0.1
2014-Jul-25 08:34N 38°39' W 009°05'0 0.0
2014-Jul-24 08:34N 38°39' W 009°05'0 0.1
2014-Jul-24 07:34N 38°39' W 009°05'0 0.3
2014-Jul-24 06:33N 38°39' W 009°05'0 0.1
2014-Jul-24 05:21N 38°39' W 009°05'0 0.0
2014-Jul-24 04:33N 38°39' W 009°05'0 0.0
2014-Jul-24 03:30N 38°39' W 009°05'0 0.0
2014-Jul-24 02:33N 38°39' W 009°05'0 0.0
2014-Jul-24 01:29N 38°39' W 009°05'0 0.0
2014-Jul-24 00:29N 38°39' W 009°05'0 0.0
2014-Jul-23 23:10N 38°39' W 009°05'0 0.0
2014-Jul-23 22:31N 38°39' W 009°05'0 0.0
2014-Jul-23 21:29N 38°39' W 009°05'0 0.0
2014-Jul-23 20:31N 38°39' W 009°05'0 0.1
2014-Jul-23 19:33N 38°39' W 009°05'4 3.6
2014-Jul-23 18:33N 38°42' W 009°08'2 1.8
2014-Jul-23 17:33N 38°40' W 009°07'2 2.0
2014-Jul-23 16:33N 38°39' W 009°05'0 0.0
2014-Jul-23 15:33N 38°39' W 009°05'0 0.1
2014-Jul-23 14:33N 38°39' W 009°05'0 0.0
2014-Jul-23 12:12N 38°39' W 009°05'0 0.0
2014-Jul-23 11:33N 38°39' W 009°05'0 0.0
2014-Jul-23 10:33N 38°39' W 009°05'0 0.0
2014-Jul-23 09:33N 38°39' W 009°05'0 0.1
2014-Jul-23 08:13N 38°39' W 009°05'0 0.6
2014-Jul-23 07:33N 38°39' W 009°05'0 0.4
2014-Jul-23 06:33N 38°39' W 009°05'0 0.0
2014-Jul-23 05:33N 38°39' W 009°05'0 0.0
2014-Jul-22 20:33N 38°39' W 009°05'0 0.1
2014-Jul-22 19:33N 38°39' W 009°05'3 3.5
2014-Jul-22 18:33N 38°42' W 009°08'2 1.7
2014-Jul-22 17:33N 38°40' W 009°07'2 2.1
2014-Jul-22 16:32N 38°39' W 009°05'0 0.2
2014-Jul-22 15:33N 38°39' W 009°05'0 0.0
2014-Jul-22 11:27N 38°39' W 009°05'4 4.9
2014-Jul-22 10:34N 38°43' W 009°06'4 4.3
2014-Jul-22 09:33N 38°39' W 009°05'1 0.8
2014-Jul-22 08:33N 38°39' W 009°06'3 3.1
2014-Jul-22 07:34N 38°42' W 009°08'0 0.4
2014-Jul-22 06:33N 38°42' W 009°08'4 0.4
2014-Jul-21 21:10N 38°39' W 009°05'0 0.0
2014-Jul-21 20:33N 38°39' W 009°05'0 0.0
2014-Jul-21 20:18N 38°39' W 009°05'0 0.0
2014-Jul-21 19:33N 38°39' W 009°05'4 3.9
2014-Jul-21 18:33N 38°42' W 009°08'0 0.4
2014-Jul-21 17:33N 38°42' W 009°08'2 2.4
2014-Jul-21 16:33N 38°40' W 009°07'2 1.9
2014-Jul-21 15:33N 38°39' W 009°05'1 0.9
2014-Jul-21 14:33N 38°39' W 009°06'1 0.9
2014-Jul-21 13:32N 38°39' W 009°05'0 0.0
2014-Jul-21 12:33N 38°39' W 009°05'0 0.0
2014-Jul-21 11:33N 38°39' W 009°05'0 0.0
2014-Jul-21 10:33N 38°39' W 009°05'1 1.5
2014-Jul-21 09:33N 38°40' W 009°06'0 0.3
2014-Jul-21 08:33N 38°40' W 009°06'0 0.5
2014-Jul-21 07:33N 38°40' W 009°07'2 1.7
2014-Jul-21 06:33N 38°39' W 009°05'0 0.0
2014-Jul-21 05:33N 38°39' W 009°05'0 0.0
2014-Jul-21 04:33N 38°39' W 009°05'0 0.0
2014-Jul-21 03:33N 38°39' W 009°05'0 0.0
2014-Jul-21 02:33N 38°39' W 009°05'0 0.0
2014-Jul-21 01:33N 38°39' W 009°05'0 0.0
2014-Jul-21 00:33N 38°39' W 009°05'0 0.0
2014-Jul-20 23:33N 38°39' W 009°05'0 0.0
2014-Jul-20 22:33N 38°39' W 009°05'0 0.0
2014-Jul-20 21:33N 38°39' W 009°05'3 2.9
2014-Jul-20 20:34N 38°41' W 009°08'3 2.9
2014-Jul-20 19:33N 38°39' W 009°05'2 2.2
2014-Jul-20 18:33N 38°40' W 009°07'1 0.6
2014-Jul-20 17:33N 38°40' W 009°06'0 0.1
2014-Jul-20 16:33N 38°40' W 009°06'0 0.0
2014-Jul-20 15:33N 38°40' W 009°06'0 0.1
2014-Jul-20 14:34N 38°40' W 009°06'0 0.1
2014-Jul-20 13:33N 38°40' W 009°06'0 0.0
2014-Jul-20 12:33N 38°40' W 009°06'1 1.5
2014-Jul-20 11:33N 38°39' W 009°05'0 0.0
2014-Jul-20 10:33N 38°39' W 009°05'0 0.0
2014-Jul-20 09:33N 38°39' W 009°05'0 0.0
2014-Jul-20 08:33N 38°39' W 009°05'0 0.0
2014-Jul-20 07:33N 38°39' W 009°05'0 0.0
2014-Jul-20 06:34N 38°39' W 009°05'1 1.1
2014-Jul-20 05:33N 38°40' W 009°06'1 1.1
2014-Jul-20 04:33N 38°39' W 009°05'  

Dump ship's entire track history